Forside
METAR-TAF:

METAR-TAF

Lufthavne :

Gamèti, Northwest Territories, Canada

Breddekreds: 64-06-58N, længdekreds: 117-18-35W, højde: 221 m

Aktuelle vejr

Denne rapport blev lavet for 7 timer og 23 minutter siden, kl. 00:00 UTC
Vind 4 kt fra sydsydøst, varierende mellem østsydøst og sydvest
Temperatur -3°C
Fugtighed 86%
Tryk 1018 hPa
Sigt: 24.1 km
Overskyet i en højde af 1200 ft
let sne

METAR: CYRA 220000Z 16004KT 120V230 15SM -SN OVC012 M03/M05 A3007 RMK SC8 -2.7/-3.7/TR/TR SNW CVR/TRACE LOOSE LAST STFD OBS/NEXT 221400 UTC SLP203

Tid: 01:23 (07:23 UTC)

Vejrudsigter

Denne rapport blev lavet for 12 timer og 45 minutter siden, kl. 18:38 UTC
Foreløbig gælder fra 21 på 19 UTC til 21 på 24 UTC
Vind 3 kt fra varierende retninger
Sigt: 10 km
Overskyet i en højde af 1200 ft
Midlertidig
fra 21 på 19 UTC til 21 på 24 UTC
Sigt: 10 km
Overskyet i en højde af 800 ft
let sne

TAF: CYRA 211838Z 2119/2124 VRB03KT P6SM OVC012 TEMPO 2119/2124 P6SM -SN OVC008 RMK NXT FCST WILL BE ISSUED AT 221545Z

Vejrobservationer og prognoser fra mere end 4000 lufthavne (METAR og TAF).

De gule og røde prikker repræsenterer de meteorologiske stationer.

Flyt musen over at se navnet på stationen.

Så klik over at se vejr observationer og prognoser.

At skifte det kort: Klik på de grønne knapper med et sort kors for at zoome ind; på den grønne knap med en bindestreg for at zoome ud; eller på de grønne pile for tilstødende kort.


METAR-TAF: